createdAt,value
2019-04-06T00:01:44.557Z,1.50
2019-04-06T00:04:14.535Z,1.60
2019-04-06T00:06:44.454Z,1.50
2019-04-06T00:09:14.841Z,1.40
2019-04-06T00:11:44.765Z,1.40
2019-04-06T00:14:14.804Z,1.40
2019-04-06T00:16:45.117Z,1.30
2019-04-06T00:19:15.095Z,1.20
2019-04-06T00:21:45.023Z,1.20
2019-04-06T00:24:15.339Z,1.20
2019-04-06T00:26:45.264Z,1.10
2019-04-06T00:29:15.186Z,1.10
2019-04-06T00:31:58.080Z,1.00
2019-04-06T00:34:28.136Z,0.90
2019-04-06T00:36:58.097Z,0.90
2019-04-06T00:39:28.570Z,0.80
2019-04-06T00:41:58.555Z,0.50
2019-04-06T00:44:28.475Z,0.20
2019-04-06T00:46:58.829Z,0.20
2019-04-06T00:49:28.842Z,0.20
2019-04-06T00:51:58.716Z,0.10
2019-04-06T00:54:29.079Z,0.10
2019-04-06T00:56:59.068Z,0.20
2019-04-06T00:59:29.132Z,0.20
2019-04-06T01:01:59.560Z,-0.10
2019-04-06T01:04:29.534Z,-0.20
2019-04-06T01:06:59.756Z,-0.30
2019-04-06T01:09:29.856Z,-0.20
2019-04-06T01:11:59.879Z,-0.30
2019-04-06T01:14:30.035Z,-0.40
2019-04-06T01:17:00.259Z,-0.50
2019-04-06T01:19:30.295Z,-0.50
2019-04-06T01:22:00.176Z,-0.70
2019-04-06T01:24:30.609Z,-0.80
2019-04-06T01:27:00.560Z,-0.70
2019-04-06T01:29:30.473Z,-0.70
2019-04-06T01:32:00.789Z,-0.70
2019-04-06T01:34:30.874Z,-0.70
2019-04-06T01:37:00.858Z,-0.80
2019-04-06T01:39:31.355Z,-0.90
2019-04-06T01:42:01.606Z,-1.10
2019-04-06T01:44:31.606Z,-1.10
2019-04-06T01:47:01.901Z,-1.00
2019-04-06T01:49:31.824Z,-1.10
2019-04-06T01:52:02.520Z,-1.10
2019-04-06T01:54:32.882Z,-0.90
2019-04-06T01:57:03.105Z,-1.00
2019-04-06T01:59:33.091Z,-0.90
2019-04-06T02:02:16.750Z,-1.10
2019-04-06T02:04:47.107Z,-1.10
2019-04-06T02:07:16.976Z,-1.00
2019-04-06T02:09:46.922Z,-0.80
2019-04-06T02:12:17.451Z,-0.90
2019-04-06T02:14:47.321Z,-0.90
2019-04-06T02:17:17.296Z,-0.90
2019-04-06T02:19:47.379Z,-0.90
2019-04-06T02:22:17.272Z,-1.00
2019-04-06T02:24:47.196Z,-0.90
2019-04-06T02:27:17.981Z,-0.90
2019-04-06T02:29:49.474Z,-0.80
2019-04-06T02:32:40.276Z,-0.80
2019-04-06T02:35:28.284Z,-0.90
2019-04-06T02:38:32.497Z,-0.90
2019-04-06T02:41:10.752Z,-0.80
2019-04-06T02:43:41.223Z,-0.80
2019-04-06T02:46:11.106Z,-0.70
2019-04-06T02:48:41.039Z,-0.50
2019-04-06T02:51:11.293Z,-0.40
2019-04-06T02:53:41.167Z,-0.30
2019-04-06T02:56:11.124Z,-0.30
2019-04-06T02:58:41.938Z,-0.10
2019-04-06T03:01:11.859Z,0.00
2019-04-06T03:03:41.744Z,0.00
2019-04-06T03:06:12.207Z,0.00
2019-04-06T03:08:42.111Z,0.10
2019-04-06T03:11:12.094Z,0.00
2019-04-06T03:13:42.588Z,0.10
2019-04-06T03:16:12.506Z,0.10
2019-04-06T03:18:42.432Z,0.10
2019-04-06T03:21:12.722Z,0.10
2019-04-06T03:23:50.202Z,0.10
2019-04-06T03:26:14.409Z,0.10
2019-04-06T03:28:45.194Z,0.20
2019-04-06T03:31:15.551Z,0.20
2019-04-06T03:33:45.808Z,0.20
2019-04-06T03:36:15.739Z,0.20
2019-04-06T03:38:46.035Z,0.10
2019-04-06T03:41:16.089Z,0.20
2019-04-06T03:43:46.470Z,0.20
2019-04-06T03:46:16.834Z,0.20
2019-04-06T03:48:46.691Z,0.30
2019-04-06T03:51:16.637Z,0.30
2019-04-06T03:53:47.037Z,0.30
2019-04-06T03:56:16.999Z,0.20
2019-04-06T03:58:47.363Z,0.20
2019-04-06T04:01:17.335Z,0.20
2019-04-06T04:03:47.253Z,0.20
2019-04-06T04:06:17.313Z,0.30
2019-04-06T04:08:47.453Z,0.30
2019-04-06T04:11:17.369Z,0.20
2019-04-06T04:13:47.719Z,0.20
2019-04-06T04:16:18.018Z,0.20
2019-04-06T04:18:48.020Z,0.10
2019-04-06T04:21:17.971Z,0.20
2019-04-06T04:23:48.276Z,0.20
2019-04-06T04:26:18.159Z,0.20
2019-04-06T04:28:48.430Z,0.20
2019-04-06T04:31:18.770Z,0.10
2019-04-06T04:33:48.755Z,-0.10
2019-04-06T04:36:18.710Z,-0.30
2019-04-06T04:38:48.977Z,-0.20
2019-04-06T04:41:18.919Z,-0.20
2019-04-06T04:43:49.575Z,-0.20
2019-04-06T04:46:19.857Z,-0.40
2019-04-06T04:48:49.761Z,-0.50
2019-04-06T04:51:19.844Z,-0.50
2019-04-06T04:53:50.147Z,-0.40
2019-04-06T04:56:20.046Z,-0.40
2019-04-06T04:58:50.369Z,-0.40
2019-04-06T05:01:20.407Z,-0.40
2019-04-06T05:03:50.411Z,-0.50
2019-04-06T05:06:20.374Z,-0.60
2019-04-06T05:08:50.580Z,-0.50
2019-04-06T05:11:20.455Z,-0.40
2019-04-06T05:13:50.769Z,-0.30
2019-04-06T05:16:21.011Z,-0.30
2019-04-06T05:18:50.989Z,-0.20
2019-04-06T05:21:20.910Z,-0.40
2019-04-06T05:23:51.196Z,-0.40
2019-04-06T05:26:21.123Z,-0.30
2019-04-06T05:28:51.322Z,-0.30
2019-04-06T05:31:21.661Z,-0.10
2019-04-06T05:33:51.551Z,0.10
2019-04-06T05:36:21.697Z,0.20
2019-04-06T05:38:52.095Z,0.30
2019-04-06T05:41:22.025Z,0.30
2019-04-06T05:43:52.372Z,0.50
2019-04-06T05:46:22.667Z,0.70
2019-04-06T05:48:52.606Z,0.90
2019-04-06T05:51:22.524Z,0.80
2019-04-06T05:53:52.838Z,0.80
2019-04-06T05:56:22.798Z,0.70
2019-04-06T05:58:52.797Z,0.90
2019-04-06T06:01:23.093Z,1.00
2019-04-06T06:03:53.123Z,1.10
2019-04-06T06:06:23.074Z,1.30
2019-04-06T06:08:53.238Z,1.40
2019-04-06T06:11:23.122Z,1.50
2019-04-06T06:13:53.497Z,1.50
2019-04-06T06:16:23.382Z,1.70
2019-04-06T06:18:53.379Z,1.80
2019-04-06T06:21:23.637Z,2.00
2019-04-06T06:23:53.520Z,2.00
2019-04-06T06:26:23.427Z,2.10
2019-04-06T06:28:53.803Z,2.40
2019-04-06T06:31:23.740Z,2.50
2019-04-06T06:33:53.623Z,2.50
2019-04-06T06:36:24.243Z,2.70
2019-04-06T06:38:54.246Z,2.80
2019-04-06T06:41:24.293Z,2.70
2019-04-06T06:43:54.523Z,2.90
2019-04-06T06:46:24.448Z,3.00
2019-04-06T06:48:54.757Z,3.00
2019-04-06T06:51:24.976Z,3.00
2019-04-06T06:53:54.869Z,3.20
2019-04-06T06:56:24.761Z,3.40
2019-04-06T06:58:54.983Z,3.30
2019-04-06T07:01:24.923Z,3.30
2019-04-06T07:03:54.833Z,3.40
2019-04-06T07:06:25.040Z,3.50
2019-04-06T07:08:55.084Z,3.40
2019-04-06T07:11:24.968Z,3.40
2019-04-06T07:13:55.022Z,3.50
2019-04-06T07:16:24.955Z,3.60
2019-04-06T07:18:54.892Z,3.70
2019-04-06T07:21:25.085Z,3.60
2019-04-06T07:23:55.087Z,3.70
2019-04-06T07:26:24.943Z,3.80
2019-04-06T07:28:55.345Z,4.00
2019-04-06T07:31:25.342Z,4.00
2019-04-06T07:33:55.548Z,4.10
2019-04-06T07:36:25.880Z,4.20
2019-04-06T07:38:55.942Z,4.40
2019-04-06T07:41:26.447Z,4.50
2019-04-06T07:43:56.417Z,4.40
2019-04-06T07:46:26.429Z,4.40
2019-04-06T07:49:07.427Z,4.70
2019-04-06T07:51:28.197Z,4.80
2019-04-06T07:53:58.244Z,4.70
2019-04-06T07:56:28.145Z,4.50
2019-04-06T07:58:58.307Z,4.50
2019-04-06T08:01:28.322Z,4.70
2019-04-06T08:03:58.264Z,4.80
2019-04-06T08:06:28.289Z,4.80
2019-04-06T08:08:58.522Z,4.90
2019-04-06T08:11:28.377Z,4.90
2019-04-06T08:13:58.346Z,4.70
2019-04-06T08:16:28.858Z,4.70
2019-04-06T08:18:58.779Z,4.80
2019-04-06T08:21:29.008Z,4.90
2019-04-06T08:23:59.478Z,5.30
2019-04-06T08:26:29.520Z,5.80
2019-04-06T08:29:02.251Z,6.30
2019-04-06T08:31:31.949Z,6.50
2019-04-06T08:34:01.948Z,6.40
2019-04-06T08:36:31.924Z,6.70
2019-04-06T08:39:02.102Z,6.60
2019-04-06T08:41:31.989Z,6.50
2019-04-06T08:44:01.930Z,6.60
2019-04-06T08:46:32.564Z,6.60
2019-04-06T08:49:02.452Z,7.00
2019-04-06T08:51:32.405Z,7.40
2019-04-06T08:54:02.670Z,7.70
2019-04-06T08:56:32.537Z,7.70
2019-04-06T08:59:11.487Z,8.00
2019-04-06T09:01:34.815Z,8.30
2019-04-06T09:04:04.696Z,8.40
2019-04-06T09:06:34.641Z,8.80
2019-04-06T09:09:06.222Z,9.00
2019-04-06T09:11:36.514Z,8.50
2019-04-06T09:14:06.970Z,8.70
2019-04-06T09:16:37.583Z,9.00
2019-04-06T09:19:07.665Z,9.20
2019-04-06T09:21:37.869Z,9.30
2019-04-06T09:24:08.358Z,8.90
2019-04-06T09:26:38.288Z,8.90
2019-04-06T09:29:08.392Z,8.90
2019-04-06T09:31:39.035Z,8.50
2019-04-06T09:34:08.928Z,8.70
2019-04-06T09:36:38.902Z,8.70
2019-04-06T09:39:09.410Z,8.40
2019-04-06T09:41:39.289Z,8.50
2019-04-06T09:44:14.927Z,8.40
2019-04-06T09:47:07.301Z,8.30
2019-04-06T09:49:52.048Z,8.30
2019-04-06T09:52:36.221Z,8.60
2019-04-06T09:55:34.498Z,9.00
2019-04-06T09:58:21.876Z,9.30
2019-04-06T10:01:14.160Z,9.40
2019-04-06T10:03:52.404Z,9.70
2019-04-06T10:06:50.815Z,10.40
2019-04-06T10:09:34.417Z,9.90
2019-04-06T10:12:22.422Z,10.30
2019-04-06T10:15:14.314Z,10.40
2019-04-06T10:17:59.852Z,10.40
2019-04-06T10:20:46.582Z,10.70
2019-04-06T10:23:34.490Z,11.20
2019-04-06T10:26:22.097Z,10.90
2019-04-06T10:29:08.921Z,11.00
2019-04-06T10:32:00.442Z,11.00
2019-04-06T10:34:48.108Z,10.80
2019-04-06T10:37:40.483Z,11.10
2019-04-06T10:40:20.119Z,11.50
2019-04-06T10:43:08.779Z,11.60
2019-04-06T10:45:56.866Z,11.00
2019-04-06T10:49:04.503Z,11.10
2019-04-06T10:51:45.443Z,11.70
2019-04-06T10:54:43.443Z,11.50
2019-04-06T10:57:31.579Z,11.80
2019-04-06T11:00:23.560Z,11.40
2019-04-06T11:03:02.212Z,11.60
2019-04-06T11:05:42.028Z,11.70
2019-04-06T11:08:27.967Z,11.60
2019-04-06T11:11:19.769Z,11.70
2019-04-06T11:14:06.105Z,11.40
2019-04-06T11:16:53.717Z,11.30
2019-04-06T11:19:35.099Z,11.50
2019-04-06T11:22:42.083Z,11.80
2019-04-06T11:25:31.349Z,11.80
2019-04-06T11:28:12.486Z,12.00
2019-04-06T11:30:56.184Z,11.90
2019-04-06T11:33:53.941Z,12.10
2019-04-06T11:36:33.471Z,12.20
2019-04-06T11:39:40.512Z,11.80
2019-04-06T11:42:32.690Z,11.20
2019-04-06T11:45:11.088Z,11.10
2019-04-06T11:48:09.005Z,11.30
2019-04-06T11:50:50.547Z,11.40
2019-04-06T11:53:38.429Z,11.50
2019-04-06T11:56:24.170Z,11.50
2019-04-06T11:59:10.398Z,12.00
2019-04-06T12:01:50.389Z,12.50
2019-04-06T12:04:42.517Z,12.40
2019-04-06T12:07:43.338Z,12.20
2019-04-06T12:10:42.005Z,12.40
2019-04-06T12:13:37.326Z,12.40
2019-04-06T12:16:25.044Z,12.20
2019-04-06T12:19:15.191Z,12.30
2019-04-06T12:22:02.590Z,12.70
2019-04-06T12:24:51.365Z,12.60
2019-04-06T12:27:43.352Z,12.50
2019-04-06T12:30:41.568Z,12.80
2019-04-06T12:33:30.787Z,12.60
2019-04-06T12:36:09.490Z,12.20
2019-04-06T12:38:51.986Z,11.70
2019-04-06T12:41:43.706Z,11.90
2019-04-06T12:44:31.603Z,12.30
2019-04-06T12:47:07.912Z,12.20
2019-04-06T12:49:57.248Z,12.00
2019-04-06T12:52:54.934Z,12.20
2019-04-06T12:55:39.968Z,12.80
2019-04-06T12:58:27.602Z,12.80
2019-04-06T13:01:19.447Z,12.70
2019-04-06T13:03:57.824Z,12.30
2019-04-06T13:06:49.973Z,12.20
2019-04-06T13:09:38.926Z,12.90
2019-04-06T13:12:26.625Z,12.90
2019-04-06T13:15:21.438Z,13.40
2019-04-06T13:18:07.385Z,12.90
2019-04-06T13:20:54.363Z,12.80
2019-04-06T13:23:49.535Z,12.80
2019-04-06T13:26:37.600Z,13.20
2019-04-06T13:29:16.093Z,13.40
2019-04-06T13:32:05.040Z,13.00
2019-04-06T13:34:54.794Z,13.00
2019-04-06T13:37:46.632Z,13.00
2019-04-06T13:40:41.810Z,13.20
2019-04-06T13:43:20.949Z,13.60
2019-04-06T13:46:13.614Z,14.50
2019-04-06T13:49:08.716Z,15.30
2019-04-06T13:52:12.968Z,15.50
2019-04-06T13:54:58.703Z,15.30
2019-04-06T13:58:00.500Z,15.00
2019-04-06T14:00:42.362Z,14.80
2019-04-06T14:03:30.453Z,15.70
2019-04-06T14:06:28.403Z,16.80
2019-04-06T14:09:17.628Z,17.60
2019-04-06T14:11:59.901Z,17.30
2019-04-06T14:14:54.614Z,16.50
2019-04-06T14:17:47.190Z,17.10
2019-04-06T14:20:42.489Z,17.60
2019-04-06T14:23:37.259Z,17.30
2019-04-06T14:26:17.696Z,17.00
2019-04-06T14:29:06.445Z,16.90
2019-04-06T14:32:07.929Z,16.40
2019-04-06T14:34:50.812Z,16.10
2019-04-06T14:37:43.579Z,16.10
2019-04-06T14:40:30.555Z,17.00
2019-04-06T14:43:29.816Z,17.00
2019-04-06T14:46:18.106Z,16.40
2019-04-06T14:49:12.118Z,16.10
2019-04-06T14:51:42.516Z,16.20
2019-04-06T14:54:37.938Z,16.10
2019-04-06T14:57:32.305Z,17.50
2019-04-06T15:00:30.800Z,18.00
2019-04-06T15:03:18.378Z,17.20
2019-04-06T15:05:55.531Z,16.90
2019-04-06T15:08:59.554Z,18.80
2019-04-06T15:11:45.025Z,18.80
2019-04-06T15:14:32.548Z,18.00
2019-04-06T15:17:17.979Z,18.30
2019-04-06T15:20:06.630Z,18.50
2019-04-06T15:23:00.594Z,19.00
2019-04-06T15:25:55.284Z,18.00
2019-04-06T15:28:44.574Z,18.30
2019-04-06T15:31:25.745Z,18.90
2019-04-06T15:34:15.151Z,20.70
2019-04-06T15:37:07.743Z,21.20
2019-04-06T15:39:57.240Z,22.90
2019-04-06T15:42:45.012Z,18.50
2019-04-06T15:45:32.646Z,18.50
2019-04-06T15:48:37.474Z,17.80
2019-04-06T15:51:36.252Z,18.00
2019-04-06T15:54:21.462Z,17.90
2019-04-06T15:57:11.210Z,19.70
2019-04-06T15:59:57.358Z,21.60
2019-04-06T16:02:37.339Z,20.60
2019-04-06T16:05:23.155Z,18.60
2019-04-06T16:08:27.311Z,18.20
2019-04-06T16:11:16.066Z,16.70
2019-04-06T16:13:55.734Z,16.00
2019-04-06T16:16:53.295Z,15.70
2019-04-06T16:19:51.483Z,16.20
2019-04-06T16:22:43.090Z,15.80
2019-04-06T16:25:44.381Z,15.40
2019-04-06T16:28:35.458Z,15.20
2019-04-06T16:31:14.207Z,15.10
2019-04-06T16:34:03.352Z,15.00
2019-04-06T16:36:52.322Z,14.90
2019-04-06T16:39:46.841Z,14.90
2019-04-06T16:42:31.289Z,15.00
2019-04-06T16:45:23.792Z,15.10
2019-04-06T16:48:11.965Z,15.10
2019-04-06T16:51:07.267Z,15.20
2019-04-06T16:53:54.359Z,15.60
2019-04-06T16:56:30.310Z,15.90
2019-04-06T16:59:18.078Z,15.90
2019-04-06T17:02:01.974Z,16.60
2019-04-06T17:04:53.928Z,16.70
2019-04-06T17:07:52.353Z,16.50
2019-04-06T17:10:40.298Z,15.80
2019-04-06T17:13:17.703Z,15.30
2019-04-06T17:16:05.690Z,15.20
2019-04-06T17:19:04.995Z,14.90
2019-04-06T17:22:00.042Z,14.20
2019-04-06T17:24:47.484Z,14.10
2019-04-06T17:27:43.496Z,13.60
2019-04-06T17:30:41.928Z,13.30
2019-04-06T17:33:33.778Z,13.40
2019-04-06T17:36:15.838Z,13.10
2019-04-06T17:39:05.269Z,12.90
2019-04-06T17:42:09.069Z,12.60
2019-04-06T17:45:01.127Z,12.60
2019-04-06T17:47:48.685Z,12.50
2019-04-06T17:50:46.919Z,12.40
2019-04-06T17:53:34.679Z,12.20
2019-04-06T17:56:32.014Z,11.90
2019-04-06T17:59:32.760Z,11.50
2019-04-06T18:02:13.821Z,11.40
2019-04-06T18:05:20.830Z,11.10
2019-04-06T18:08:08.587Z,10.90
2019-04-06T18:10:50.216Z,10.70
2019-04-06T18:13:27.551Z,10.60
2019-04-06T18:15:58.062Z,10.40
2019-04-06T18:18:28.397Z,10.00
2019-04-06T18:20:58.692Z,9.80
2019-04-06T18:23:28.900Z,9.70
2019-04-06T18:25:59.253Z,9.50
2019-04-06T18:28:29.279Z,9.30
2019-04-06T18:31:18.405Z,9.20
2019-04-06T18:33:48.517Z,9.20
2019-04-06T18:36:18.828Z,9.00
2019-04-06T18:38:57.302Z,8.80
2019-04-06T18:41:27.211Z,8.80
2019-04-06T18:43:57.148Z,8.60
2019-04-06T18:46:27.464Z,8.50
2019-04-06T18:48:57.485Z,8.30
2019-04-06T18:51:27.426Z,8.10
2019-04-06T18:53:57.454Z,8.00
2019-04-06T18:56:27.652Z,7.90
2019-04-06T18:58:57.596Z,7.70
2019-04-06T19:01:27.894Z,7.70
2019-04-06T19:03:57.843Z,7.60
2019-04-06T19:06:28.176Z,7.50
2019-04-06T19:08:59.552Z,7.20
2019-04-06T19:11:30.123Z,7.10
2019-04-06T19:14:00.538Z,7.00
2019-04-06T19:16:31.160Z,6.90
2019-04-06T19:19:01.599Z,6.80
2019-04-06T19:21:31.464Z,6.70
2019-04-06T19:24:01.659Z,6.60
2019-04-06T19:26:32.222Z,6.60
2019-04-06T19:29:02.768Z,6.60
2019-04-06T19:31:33.309Z,6.50
2019-04-06T19:34:03.203Z,6.40
2019-04-06T19:36:33.137Z,6.20
2019-04-06T19:39:04.309Z,6.20
2019-04-06T19:41:34.188Z,6.10
2019-04-06T19:44:04.106Z,6.10
2019-04-06T19:46:34.252Z,6.00
2019-04-06T19:49:04.164Z,5.90
2019-04-06T19:51:34.052Z,5.90
2019-04-06T19:54:05.818Z,5.90
2019-04-06T19:56:36.488Z,5.90
2019-04-06T19:59:06.883Z,5.90
2019-04-06T20:01:36.853Z,5.70
2019-04-06T20:04:06.874Z,5.60
2019-04-06T20:06:37.402Z,5.40
2019-04-06T20:09:08.655Z,5.30
2019-04-06T20:11:38.934Z,5.20
2019-04-06T20:14:08.910Z,5.30
2019-04-06T20:16:38.887Z,5.10
2019-04-06T20:19:08.960Z,4.90
2019-04-06T20:21:38.885Z,4.90
2019-04-06T20:24:09.537Z,4.80
2019-04-06T20:26:40.172Z,4.50
2019-04-06T20:29:10.071Z,4.50
2019-04-06T20:31:40.016Z,4.60
2019-04-06T20:34:10.801Z,4.80
2019-04-06T20:36:40.842Z,5.00
2019-04-06T20:39:11.316Z,4.90
2019-04-06T20:41:41.567Z,4.80
2019-04-06T20:44:11.995Z,4.70
2019-04-06T20:46:42.245Z,4.70
2019-04-06T20:49:12.196Z,4.50
2019-04-06T20:51:42.319Z,4.40
2019-04-06T20:54:12.702Z,4.60
2019-04-06T20:56:53.226Z,4.50
2019-04-06T20:59:15.053Z,4.40
2019-04-06T21:01:45.091Z,4.30
2019-04-06T21:04:15.618Z,4.30
2019-04-06T21:06:45.681Z,4.10
2019-04-06T21:09:15.926Z,3.90
2019-04-06T21:11:46.198Z,3.90
2019-04-06T21:14:16.347Z,3.80
2019-04-06T21:16:46.880Z,3.70
2019-04-06T21:19:17.300Z,3.70
2019-04-06T21:21:47.252Z,3.70
2019-04-06T21:24:18.085Z,3.50
2019-04-06T21:26:48.808Z,3.50
2019-04-06T21:29:19.068Z,3.50
2019-04-06T21:31:49.758Z,3.50
2019-04-06T21:34:19.735Z,3.50
2019-04-06T21:36:49.661Z,3.50
2019-04-06T21:39:20.097Z,3.50
2019-04-06T21:41:50.350Z,3.40
2019-04-06T21:44:20.455Z,3.10
2019-04-06T21:46:50.531Z,3.10
2019-04-06T21:49:21.585Z,3.00
2019-04-06T21:51:52.131Z,2.90
2019-04-06T21:54:22.869Z,3.00
2019-04-06T21:56:53.474Z,2.90
2019-04-06T21:59:23.465Z,2.90
2019-04-06T22:01:54.249Z,3.00
2019-04-06T22:04:26.704Z,2.90
2019-04-06T22:06:56.011Z,3.00
2019-04-06T22:09:27.034Z,3.10
2019-04-06T22:11:57.400Z,3.10
2019-04-06T22:14:27.448Z,3.10
2019-04-06T22:16:57.408Z,3.10
2019-04-06T22:19:27.797Z,3.30
2019-04-06T22:21:57.786Z,3.20
2019-04-06T22:24:28.328Z,3.20
2019-04-06T22:26:58.339Z,3.10
2019-04-06T22:29:28.678Z,3.10
2019-04-06T22:31:59.599Z,3.20
2019-04-06T22:34:38.729Z,3.30
2019-04-06T22:37:01.587Z,3.20
2019-04-06T22:39:31.847Z,3.30
2019-04-06T22:42:02.133Z,3.10
2019-04-06T22:44:32.951Z,3.20
2019-04-06T22:47:03.510Z,3.20
2019-04-06T22:49:33.861Z,3.20
2019-04-06T22:52:04.366Z,3.20
2019-04-06T22:54:34.612Z,3.30
2019-04-06T22:57:04.639Z,3.30
2019-04-06T22:59:35.103Z,3.30
2019-04-06T23:02:05.510Z,3.20
2019-04-06T23:04:50.922Z,3.10
2019-04-06T23:07:21.780Z,3.10
2019-04-06T23:09:52.306Z,3.10
2019-04-06T23:12:22.238Z,3.10
2019-04-06T23:14:52.268Z,3.00
2019-04-06T23:17:22.501Z,2.90
2019-04-06T23:19:53.255Z,2.70
2019-04-06T23:22:23.566Z,2.70
2019-04-06T23:24:53.718Z,2.50
2019-04-06T23:27:24.294Z,2.50
2019-04-06T23:29:54.394Z,2.40
2019-04-06T23:32:24.273Z,2.30
2019-04-06T23:34:59.861Z,2.20
2019-04-06T23:37:26.148Z,2.00
2019-04-06T23:39:56.375Z,2.00
2019-04-06T23:42:26.291Z,2.00
2019-04-06T23:44:56.832Z,2.00
2019-04-06T23:47:27.391Z,2.00
2019-04-06T23:49:57.782Z,2.00
2019-04-06T23:52:28.105Z,2.00
2019-04-06T23:54:58.867Z,2.00
2019-04-06T23:57:29.201Z,1.90
2019-04-06T23:59:59.617Z,1.80
